Time;durP1;ratioP1;P1;durP2;ratioP2;P2;SDS_P1;SDS_P2;PMS_P1;PMS_P2;Temp;Humidity;BMP_temperature;BMP_pressure;BME280_temperature;BME280_humidity;BME280_pressure;Samples;Min_cycle;Max_cycle;Signal;HPM_P1;HPM_P2
2022/10/18 00:01:11;;;;;;;7.72;3.60;;;13.50;99.90;;;;;;5020011;28;20043;-71
2022/10/18 00:03:37;;;;;;;8.00;4.15;;;13.50;99.90;;;;;;5019469;28;20562;-71
2022/10/18 00:06:03;;;;;;;7.88;3.67;;;13.50;99.90;;;;;;5019933;28;20045;-71
2022/10/18 00:08:29;;;;;;;7.20;3.70;;;13.50;99.90;;;;;;5016426;28;20045;-71
2022/10/18 00:10:55;;;;;;;5.70;3.28;;;13.50;99.90;;;;;;5017692;28;20403;-71
2022/10/18 00:13:21;;;;;;;5.85;2.92;;;13.40;99.90;;;;;;5017054;28;20488;-71
2022/10/18 00:16:09;;;;;;;7.20;3.30;;;13.40;99.90;;;;;;5020102;28;20075;-71
2022/10/18 00:18:35;;;;;;;9.00;4.22;;;13.40;99.90;;;;;;5018546;28;20045;-71
2022/10/18 00:21:08;;;;;;;7.93;4.07;;;13.40;99.90;;;;;;5014984;28;20048;-71
2022/10/18 00:23:34;;;;;;;6.50;3.58;;;13.40;99.90;;;;;;5013686;28;20073;-71
2022/10/18 00:26:04;;;;;;;5.50;3.13;;;13.40;99.90;;;;;;5016092;28;20049;-71
2022/10/18 00:28:31;;;;;;;8.82;4.10;;;13.40;99.90;;;;;;5020046;28;20033;-71
2022/10/18 00:30:57;;;;;;;8.23;3.45;;;13.50;99.90;;;;;;5019037;28;20044;-71
2022/10/18 00:33:22;;;;;;;6.28;2.67;;;13.40;99.90;;;;;;5021892;28;20458;-71
2022/10/18 00:35:48;;;;;;;5.78;3.35;;;13.40;99.90;;;;;;5014073;28;20041;-71
2022/10/18 00:38:14;;;;;;;7.47;4.25;;;13.40;99.90;;;;;;5007215;28;20037;-71
2022/10/18 00:40:39;;;;;;;6.30;3.20;;;13.50;99.90;;;;;;5019973;28;20053;-71
2022/10/18 00:43:05;;;;;;;6.40;3.67;;;13.40;99.90;;;;;;5014191;28;20485;-71
2022/10/18 00:45:30;;;;;;;7.07;3.00;;;13.40;99.90;;;;;;5016554;28;20072;-71
2022/10/18 00:48:01;;;;;;;6.93;3.45;;;13.40;99.90;;;;;;5017804;28;20025;-71
2022/10/18 00:50:30;;;;;;;6.53;3.05;;;13.40;99.90;;;;;;5005130;28;20085;-71
2022/10/18 00:53:00;;;;;;;7.22;3.40;;;13.40;99.90;;;;;;5019191;28;20130;-71
2022/10/18 00:55:27;;;;;;;6.32;3.45;;;13.40;99.90;;;;;;5020094;28;20140;-71
2022/10/18 00:57:54;;;;;;;5.28;2.90;;;13.40;99.90;;;;;;5016647;28;20045;-71
2022/10/18 01:00:20;;;;;;;8.48;4.15;;;13.30;99.90;;;;;;5017134;28;20084;-71
2022/10/18 01:02:46;;;;;;;6.32;3.03;;;13.40;99.90;;;;;;5003557;28;20046;-71
2022/10/18 01:05:14;;;;;;;7.97;3.00;;;13.40;99.90;;;;;;5019145;28;20682;-71
2022/10/18 01:08:03;;;;;;;5.55;2.90;;;13.40;99.90;;;;;;5018585;28;20041;-71
2022/10/18 01:11:12;;;;;;;6.38;3.25;;;13.30;99.90;;;;;;5017234;28;20046;-71
2022/10/18 01:14:23;;;;;;;6.70;3.13;;;13.30;99.90;;;;;;5001066;28;20045;-71
2022/10/18 01:17:12;;;;;;;7.03;3.40;;;13.30;99.90;;;;;;5026882;28;20049;-71
2022/10/18 01:19:56;;;;;;;5.88;3.10;;;13.30;99.90;;;;;;5014880;28;20038;-71
2022/10/18 01:22:27;;;;;;;7.32;3.72;;;13.30;99.90;;;;;;4995981;28;20044;-71
2022/10/18 01:25:18;;;;;;;6.55;3.08;;;13.30;99.90;;;;;;5014886;28;20371;-71
2022/10/18 01:27:54;;;;;;;6.20;3.38;;;13.30;99.90;;;;;;5016267;28;20429;-71
2022/10/18 01:30:37;;;;;;;5.35;2.58;;;13.20;99.90;;;;;;5015565;28;20656;-71
2022/10/18 01:33:25;;;;;;;6.18;3.20;;;13.30;99.90;;;;;;5012033;28;20029;-71
2022/10/18 01:36:35;;;;;;;5.78;3.20;;;13.30;99.90;;;;;;5016111;28;20124;-71
2022/10/18 01:39:07;;;;;;;6.55;3.22;;;13.20;99.90;;;;;;5002033;28;20103;-71
2022/10/18 01:41:36;;;;;;;6.18;3.08;;;13.20;99.90;;;;;;5002284;28;20048;-71
2022/10/18 01:44:05;;;;;;;7.35;3.65;;;13.20;99.90;;;;;;5017191;28;20034;-71
2022/10/18 01:46:32;;;;;;;7.25;3.65;;;13.20;99.90;;;;;;5013884;28;20529;-71
2022/10/18 01:48:58;;;;;;;7.53;3.85;;;13.20;99.90;;;;;;5017974;28;20041;-71
2022/10/18 01:51:25;;;;;;;4.85;2.70;;;13.10;99.90;;;;;;4998749;28;20669;-71
2022/10/18 01:53:51;;;;;;;5.45;2.92;;;13.10;99.90;;;;;;5015327;28;20586;-71
2022/10/18 01:56:35;;;;;;;6.68;3.53;;;13.10;99.90;;;;;;5011066;28;20042;-71
2022/10/18 01:59:11;;;;;;;5.88;3.05;;;13.10;99.90;;;;;;5012461;28;20044;-71
2022/10/18 02:02:06;;;;;;;6.88;3.30;;;13.10;99.90;;;;;;5013804;28;20903;-71
2022/10/18 02:04:49;;;;;;;7.15;3.00;;;13.00;99.90;;;;;;5015748;28;20095;-71
2022/10/18 02:07:30;;;;;;;6.32;3.58;;;13.00;99.90;;;;;;5016070;28;20048;-71
2022/10/18 02:10:07;;;;;;;5.82;3.40;;;13.00;99.90;;;;;;5017809;28;20510;-71
2022/10/18 02:12:35;;;;;;;6.55;3.17;;;13.00;99.90;;;;;;5020306;28;20064;-71
2022/10/18 02:15:03;;;;;;;6.13;2.83;;;13.00;99.90;;;;;;5015188;28;20428;-71
2022/10/18 02:17:29;;;;;;;6.18;3.13;;;12.90;99.90;;;;;;5015663;28;20060;-71
2022/10/18 02:19:56;;;;;;;4.93;2.47;;;12.90;99.90;;;;;;5015551;28;20045;-71
2022/10/18 02:22:26;;;;;;;6.35;2.97;;;12.90;99.90;;;;;;5000898;28;20052;-71
2022/10/18 02:24:56;;;;;;;5.80;3.00;;;12.90;99.90;;;;;;5017598;28;20547;-71
2022/10/18 02:27:22;;;;;;;7.30;3.72;;;12.80;99.90;;;;;;5013377;28;20037;-71
2022/10/18 02:29:48;;;;;;;6.72;3.50;;;12.90;99.90;;;;;;5019128;28;20117;-71
2022/10/18 02:32:37;;;;;;;5.28;2.92;;;12.90;99.90;;;;;;5000315;28;20084;-71
2022/10/18 02:35:09;;;;;;;7.72;3.70;;;12.80;99.90;;;;;;5018040;28;20041;-71
2022/10/18 02:37:37;;;;;;;6.65;3.03;;;12.90;99.90;;;;;;5017576;28;20132;-71
2022/10/18 02:40:06;;;;;;;5.80;2.95;;;12.90;99.90;;;;;;5017450;28;20034;-71
2022/10/18 02:42:43;;;;;;;5.15;3.20;;;12.90;99.90;;;;;;5010389;28;20392;-71
2022/10/18 02:45:10;;;;;;;5.70;2.60;;;12.90;99.90;;;;;;5019896;28;20053;-71
2022/10/18 02:47:36;;;;;;;4.85;3.20;;;12.90;99.90;;;;;;5018118;28;20040;-71
2022/10/18 02:50:01;;;;;;;5.22;2.92;;;12.90;99.90;;;;;;5022404;28;20021;-71
2022/10/18 02:52:27;;;;;;;6.65;3.33;;;12.90;99.90;;;;;;5021208;28;20038;-71
2022/10/18 02:54:53;;;;;;;5.97;3.50;;;13.00;99.90;;;;;;5023093;28;20072;-71
2022/10/18 02:57:18;;;;;;;5.63;3.17;;;13.00;99.90;;;;;;5018306;28;20041;-71
2022/10/18 02:59:44;;;;;;;6.93;3.75;;;13.00;99.90;;;;;;5020015;28;20057;-71
2022/10/18 03:02:09;;;;;;;5.32;2.63;;;13.00;99.90;;;;;;5016635;28;20042;-71
2022/10/18 03:04:35;;;;;;;6.40;2.97;;;13.00;99.90;;;;;;5018599;28;20042;-71
2022/10/18 03:07:00;;;;;;;5.93;3.17;;;13.00;99.90;;;;;;5020015;28;20052;-71
2022/10/18 03:09:26;;;;;;;6.18;3.35;;;13.00;99.90;;;;;;5017039;28;20064;-71
2022/10/18 03:11:52;;;;;;;5.43;3.10;;;13.00;99.90;;;;;;5017357;28;20360;-71
2022/10/18 03:14:17;;;;;;;6.55;2.95;;;13.00;99.90;;;;;;5022570;28;20045;-71
2022/10/18 03:16:43;;;;;;;5.72;3.17;;;13.00;99.90;;;;;;5023268;28;20045;-71
2022/10/18 03:19:08;;;;;;;5.03;2.83;;;13.00;99.90;;;;;;5018146;28;20037;-71
2022/10/18 03:21:34;;;;;;;7.28;3.85;;;13.00;99.90;;;;;;5020527;28;20037;-71
2022/10/18 03:24:01;;;;;;;6.55;3.03;;;13.00;99.90;;;;;;5004542;28;20131;-72
2022/10/18 03:26:26;;;;;;;5.00;2.70;;;13.00;99.90;;;;;;5015145;28;20044;-71
2022/10/18 03:28:53;;;;;;;5.53;2.80;;;13.00;99.90;;;;;;5016556;28;20045;-71
2022/10/18 03:31:19;;;;;;;5.97;2.53;;;13.00;99.90;;;;;;5000968;28;20040;-71
2022/10/18 03:33:45;;;;;;;6.10;2.95;;;13.00;99.90;;;;;;5019725;28;20053;-71
2022/10/18 03:36:11;;;;;;;6.15;3.13;;;13.00;99.90;;;;;;5019138;28;20045;-71
2022/10/18 03:38:36;;;;;;;6.38;3.63;;;13.00;99.90;;;;;;5016773;28;20384;-71
2022/10/18 03:41:02;;;;;;;5.53;3.22;;;13.00;99.90;;;;;;5006190;28;20072;-71
2022/10/18 03:43:28;;;;;;;5.45;3.00;;;12.90;99.90;;;;;;5022510;28;20488;-71
2022/10/18 03:45:54;;;;;;;5.38;2.92;;;13.00;99.90;;;;;;5018530;28;20067;-71
2022/10/18 03:48:20;;;;;;;5.35;3.10;;;12.90;99.90;;;;;;5021847;28;20483;-71
2022/10/18 03:50:46;;;;;;;5.65;2.78;;;12.90;99.90;;;;;;5002576;28;20037;-71
2022/10/18 03:53:11;;;;;;;5.65;3.00;;;13.00;99.90;;;;;;5016913;28;20045;-71
2022/10/18 03:55:37;;;;;;;4.95;2.95;;;13.00;99.90;;;;;;5015537;28;20048;-71
2022/10/18 03:58:04;;;;;;;5.15;3.17;;;13.00;99.90;;;;;;5017238;28;20041;-71
2022/10/18 04:00:29;;;;;;;6.22;3.40;;;12.90;99.90;;;;;;5021231;28;20087;-71
2022/10/18 04:02:55;;;;;;;5.60;3.15;;;12.90;99.90;;;;;;5016454;28;20053;-71
2022/10/18 04:05:22;;;;;;;4.82;3.05;;;12.90;99.90;;;;;;5017956;28;20113;-71
2022/10/18 04:07:48;;;;;;;5.55;3.20;;;12.90;99.90;;;;;;5020274;28;20096;-71
2022/10/18 04:10:14;;;;;;;4.32;2.72;;;12.90;99.90;;;;;;5019362;28;20692;-71
2022/10/18 04:12:40;;;;;;;4.90;2.72;;;12.90;99.90;;;;;;5015422;28;20052;-71
2022/10/18 04:15:07;;;;;;;4.95;3.15;;;12.90;99.90;;;;;;5021555;28;20037;-71
2022/10/18 04:17:32;;;;;;;3.95;2.22;;;12.90;99.90;;;;;;5002937;28;20061;-71
2022/10/18 04:19:58;;;;;;;6.00;3.10;;;12.90;99.90;;;;;;5018799;28;20072;-71
2022/10/18 04:22:23;;;;;;;3.88;2.50;;;12.90;99.90;;;;;;5018143;28;20099;-71
2022/10/18 04:24:49;;;;;;;4.20;2.20;;;13.00;99.90;;;;;;5016361;28;20056;-71
2022/10/18 04:27:14;;;;;;;4.57;2.83;;;12.90;99.90;;;;;;5020181;28;20030;-71
2022/10/18 04:29:40;;;;;;;4.20;2.60;;;12.90;99.90;;;;;;5020439;28;20205;-71
2022/10/18 04:32:05;;;;;;;4.82;2.47;;;12.90;99.90;;;;;;5016006;28;20033;-71
2022/10/18 04:34:31;;;;;;;4.95;2.65;;;12.90;99.90;;;;;;5021366;28;20459;-71
2022/10/18 04:36:56;;;;;;;5.55;3.20;;;12.90;99.90;;;;;;5016909;28;20037;-71
2022/10/18 04:39:22;;;;;;;5.63;3.10;;;12.90;99.90;;;;;;5016859;28;20164;-71
2022/10/18 04:41:47;;;;;;;5.03;2.95;;;12.90;99.90;;;;;;5020596;28;20045;-71
2022/10/18 04:44:13;;;;;;;4.95;2.63;;;12.90;99.90;;;;;;5018761;28;20041;-71
2022/10/18 04:46:39;;;;;;;5.18;3.42;;;12.90;99.90;;;;;;5016698;28;20189;-71
2022/10/18 04:49:04;;;;;;;3.78;2.28;;;12.90;99.90;;;;;;5016646;28;20085;-71
2022/10/18 04:51:30;;;;;;;7.45;2.83;;;12.80;99.90;;;;;;5001705;28;20037;-71
2022/10/18 04:53:56;;;;;;;4.63;2.33;;;13.00;99.90;;;;;;5015960;28;20499;-71
2022/10/18 04:56:21;;;;;;;4.32;2.60;;;12.80;99.90;;;;;;5015621;28;20073;-71
2022/10/18 04:58:47;;;;;;;4.95;2.47;;;12.80;99.90;;;;;;5016365;28;20526;-71
2022/10/18 05:01:12;;;;;;;3.42;2.47;;;12.80;99.90;;;;;;5013890;28;20030;-71
2022/10/18 05:03:38;;;;;;;6.32;2.88;;;12.80;99.90;;;;;;5015604;28;20042;-71
2022/10/18 05:06:04;;;;;;;5.88;2.90;;;12.80;99.90;;;;;;5014963;28;20116;-71
2022/10/18 05:08:31;;;;;;;4.50;2.30;;;12.80;99.90;;;;;;5016278;28;20075;-71
2022/10/18 05:10:57;;;;;;;5.18;3.03;;;12.80;99.90;;;;;;5016977;28;20500;-71
2022/10/18 05:13:23;;;;;;;5.60;2.75;;;12.70;99.90;;;;;;5015003;28;20056;-71
2022/10/18 05:15:48;;;;;;;4.65;2.45;;;12.70;99.90;;;;;;5003867;28;20033;-71
2022/10/18 05:18:14;;;;;;;4.28;2.25;;;12.70;99.90;;;;;;5005050;28;20602;-71
2022/10/18 05:20:39;;;;;;;5.38;3.10;;;12.70;99.90;;;;;;5019569;28;20115;-71
2022/10/18 05:23:05;;;;;;;4.18;2.15;;;12.70;99.90;;;;;;5020101;28;20048;-71
2022/10/18 05:25:31;;;;;;;5.63;2.33;;;12.70;99.90;;;;;;5020225;28;20065;-71
2022/10/18 05:27:56;;;;;;;5.72;3.03;;;12.70;99.90;;;;;;5000593;28;20076;-71
2022/10/18 05:30:22;;;;;;;5.60;2.92;;;12.70;99.90;;;;;;5016784;28;20049;-71
2022/10/18 05:32:47;;;;;;;5.20;2.58;;;12.70;99.90;;;;;;5020785;28;20492;-71
2022/10/18 05:35:13;;;;;;;3.90;2.22;;;12.60;99.90;;;;;;5014417;28;21782;-71
2022/10/18 05:37:39;;;;;;;5.35;3.10;;;12.70;99.90;;;;;;5020616;28;20461;-71
2022/10/18 05:40:05;;;;;;;4.22;2.00;;;12.60;99.90;;;;;;5019317;28;20088;-71
2022/10/18 05:42:30;;;;;;;5.32;2.97;;;12.60;99.90;;;;;;5019098;28;20040;-71
2022/10/18 05:44:56;;;;;;;4.07;2.30;;;12.70;99.90;;;;;;5017492;28;20041;-71
2022/10/18 05:47:22;;;;;;;3.53;2.40;;;12.60;99.90;;;;;;5014802;28;20168;-71
2022/10/18 05:49:47;;;;;;;4.18;2.22;;;12.50;99.90;;;;;;5018603;28;20029;-71
2022/10/18 05:52:13;;;;;;;4.35;2.30;;;12.50;99.90;;;;;;5019639;28;20034;-71
2022/10/18 05:54:38;;;;;;;4.25;2.22;;;12.50;99.90;;;;;;5018360;28;20083;-71
2022/10/18 05:57:04;;;;;;;5.15;3.10;;;12.50;99.90;;;;;;5032559;28;20494;-71
2022/10/18 05:59:30;;;;;;;3.03;1.92;;;12.50;99.90;;;;;;5016432;28;20095;-71
2022/10/18 06:01:55;;;;;;;3.53;2.20;;;12.50;99.90;;;;;;5015239;28;20048;-71
2022/10/18 06:04:21;;;;;;;4.85;2.17;;;12.40;99.90;;;;;;5015782;28;20121;-71
2022/10/18 06:06:46;;;;;;;5.15;2.38;;;12.40;99.90;;;;;;5021385;28;20628;-71
2022/10/18 06:09:12;;;;;;;3.47;2.05;;;12.40;99.90;;;;;;5014660;28;20526;-71
2022/10/18 06:11:38;;;;;;;3.88;2.10;;;12.40;99.90;;;;;;5031624;28;20115;-71
2022/10/18 06:14:04;;;;;;;3.45;2.20;;;12.40;99.90;;;;;;5019510;28;20049;-71
2022/10/18 06:16:29;;;;;;;4.38;2.28;;;12.40;99.90;;;;;;5011144;28;20041;-71
2022/10/18 06:18:56;;;;;;;4.25;2.08;;;12.40;99.90;;;;;;5020016;28;20041;-71
2022/10/18 06:21:23;;;;;;;3.58;1.90;;;12.40;99.90;;;;;;5022811;28;20053;-71
2022/10/18 06:23:54;;;;;;;3.30;1.75;;;12.30;99.90;;;;;;5002908;28;20128;-71
2022/10/18 06:26:19;;;;;;;2.83;1.63;;;12.40;99.90;;;;;;5016220;28;20049;-71
2022/10/18 06:28:45;;;;;;;3.60;2.13;;;12.30;99.90;;;;;;5024523;28;20038;-71
2022/10/18 06:31:12;;;;;;;2.85;1.73;;;12.30;99.90;;;;;;5024667;28;20033;-71
2022/10/18 06:33:37;;;;;;;2.95;1.90;;;12.30;99.90;;;;;;5039392;28;20058;-71
2022/10/18 06:36:05;;;;;;;3.03;1.73;;;12.30;99.90;;;;;;5017857;28;20068;-71
2022/10/18 06:38:32;;;;;;;4.03;2.15;;;12.30;99.90;;;;;;5017845;28;20037;-72
2022/10/18 06:40:59;;;;;;;3.00;1.70;;;12.30;99.90;;;;;;5024836;28;20041;-71
2022/10/18 06:43:25;;;;;;;4.57;1.95;;;12.30;99.90;;;;;;5013112;28;20036;-71
2022/10/18 06:45:51;;;;;;;4.95;1.95;;;12.30;99.90;;;;;;5021113;28;20509;-71
2022/10/18 06:48:17;;;;;;;3.05;1.50;;;12.30;99.90;;;;;;5019453;28;20415;-71
2022/10/18 06:50:53;;;;;;;3.47;2.17;;;12.30;99.90;;;;;;5020443;28;20394;-71
2022/10/18 06:53:19;;;;;;;4.88;2.13;;;12.20;99.90;;;;;;5018934;28;20033;-71
2022/10/18 06:55:45;;;;;;;3.17;1.73;;;12.30;99.90;;;;;;5019514;28;20075;-71
2022/10/18 06:58:11;;;;;;;5.03;2.67;;;12.30;99.90;;;;;;5014530;28;20042;-71
2022/10/18 07:00:36;;;;;;;3.40;1.85;;;12.30;99.90;;;;;;5014359;28;20034;-71
2022/10/18 07:03:02;;;;;;;3.75;1.90;;;12.30;99.90;;;;;;5014982;28;20048;-71
2022/10/18 07:05:28;;;;;;;3.58;1.88;;;12.20;99.90;;;;;;5019844;28;20046;-71
2022/10/18 07:07:53;;;;;;;4.65;2.50;;;12.30;99.90;;;;;;5017345;28;20046;-71
2022/10/18 07:10:19;;;;;;;3.28;1.60;;;12.20;99.90;;;;;;5018502;28;20487;-71
2022/10/18 07:12:45;;;;;;;2.80;1.50;;;12.20;99.90;;;;;;5017535;28;20098;-71
2022/10/18 07:15:10;;;;;;;4.63;2.42;;;12.30;99.90;;;;;;5013674;28;20046;-71
2022/10/18 07:17:36;;;;;;;3.67;1.85;;;12.20;99.90;;;;;;5017497;28;20416;-71
2022/10/18 07:20:03;;;;;;;3.63;2.08;;;12.30;99.90;;;;;;5012846;28;20127;-71
2022/10/18 07:22:29;;;;;;;3.47;1.48;;;12.20;99.90;;;;;;5019208;28;20042;-71
2022/10/18 07:24:54;;;;;;;8.70;1.80;;;12.30;99.90;;;;;;5003654;28;20095;-71
2022/10/18 07:27:20;;;;;;;2.83;1.63;;;12.20;99.90;;;;;;5016888;28;20045;-71
2022/10/18 07:29:47;;;;;;;3.47;2.08;;;12.20;99.90;;;;;;4998244;28;20045;-71
2022/10/18 07:32:13;;;;;;;4.00;2.08;;;12.20;99.90;;;;;;5016953;28;20041;-71
2022/10/18 07:34:38;;;;;;;3.90;1.83;;;12.30;99.90;;;;;;5018384;28;20034;-71
2022/10/18 07:37:04;;;;;;;5.05;1.58;;;12.20;99.90;;;;;;5022060;28;20100;-71
2022/10/18 07:39:29;;;;;;;2.65;1.63;;;12.20;99.90;;;;;;5017399;28;20073;-71
2022/10/18 07:41:56;;;;;;;3.58;1.65;;;12.20;99.90;;;;;;5000925;28;20574;-71
2022/10/18 07:44:22;;;;;;;2.55;1.50;;;12.10;99.90;;;;;;5017551;28;20042;-71
2022/10/18 07:46:47;;;;;;;2.28;1.20;;;12.20;99.90;;;;;;4999918;28;20519;-71
2022/10/18 07:49:13;;;;;;;2.65;1.33;;;12.20;99.90;;;;;;5022643;28;20091;-71
2022/10/18 07:51:38;;;;;;;4.15;1.73;;;12.20;99.90;;;;;;5019157;28;20483;-71
2022/10/18 07:54:04;;;;;;;2.45;1.52;;;12.20;99.90;;;;;;5014230;28;20087;-71
2022/10/18 07:56:30;;;;;;;3.00;1.88;;;12.20;99.90;;;;;;5013476;28;20053;-71
2022/10/18 07:58:55;;;;;;;4.38;1.80;;;12.20;99.90;;;;;;5017688;28;20037;-71
2022/10/18 08:01:23;;;;;;;4.20;2.05;;;12.20;99.90;;;;;;5003056;28;20494;-71
2022/10/18 08:03:49;;;;;;;3.20;1.45;;;12.20;99.90;;;;;;5015499;28;20260;-71
2022/10/18 08:06:17;;;;;;;2.20;1.40;;;12.20;99.90;;;;;;5017092;28;20168;-71
2022/10/18 08:08:44;;;;;;;2.97;1.42;;;12.20;99.90;;;;;;5016834;28;20521;-71
2022/10/18 08:11:19;;;;;;;2.90;1.70;;;12.20;99.90;;;;;;5000180;28;20480;-71
2022/10/18 08:13:45;;;;;;;2.22;1.50;;;12.20;99.90;;;;;;5017992;28;20030;-71
2022/10/18 08:16:18;;;;;;;2.22;1.60;;;12.20;99.90;;;;;;5001014;28;20045;-71
2022/10/18 08:18:43;;;;;;;3.30;2.20;;;12.20;99.90;;;;;;5001056;28;20043;-71
2022/10/18 08:21:10;;;;;;;3.90;1.88;;;12.20;99.90;;;;;;4997695;28;20061;-71
2022/10/18 08:23:37;;;;;;;3.05;1.77;;;12.20;99.90;;;;;;5015534;28;20065;-71
2022/10/18 08:26:14;;;;;;;4.05;2.15;;;12.30;99.90;;;;;;5012940;28;20049;-71
2022/10/18 08:28:39;;;;;;;4.00;2.10;;;12.40;99.90;;;;;;5013285;28;20037;-71
2022/10/18 08:31:13;;;;;;;2.97;1.60;;;12.40;99.90;;;;;;5019753;28;20049;-71
2022/10/18 08:33:39;;;;;;;6.75;2.05;;;12.50;99.90;;;;;;5034689;28;20029;-71
2022/10/18 08:36:07;;;;;;;2.80;1.65;;;12.50;99.90;;;;;;5011300;28;20068;-71
2022/10/18 08:38:35;;;;;;;4.28;1.98;;;12.50;99.90;;;;;;5009748;28;20136;-71
2022/10/18 08:41:21;;;;;;;2.88;1.77;;;12.50;99.90;;;;;;5027008;28;20514;-71
2022/10/18 08:43:51;;;;;;;6.55;2.47;;;12.50;99.90;;;;;;5011500;28;20221;-71
2022/10/18 08:46:17;;;;;;;3.30;1.80;;;12.50;99.90;;;;;;5006512;28;20064;-75
2022/10/18 08:48:51;;;;;;;4.00;1.60;;;12.50;99.90;;;;;;4998252;28;20067;-71
2022/10/18 08:51:30;;;;;;;3.35;1.80;;;12.60;99.90;;;;;;5007483;28;20517;-71
2022/10/18 08:54:03;;;;;;;3.70;1.77;;;12.60;99.90;;;;;;5003515;28;20063;-70
2022/10/18 08:56:31;;;;;;;6.90;1.83;;;12.60;99.90;;;;;;4985401;28;20129;-70
2022/10/18 08:58:56;;;;;;;3.28;1.63;;;12.70;99.90;;;;;;5008773;28;20050;-70
2022/10/18 09:01:32;;;;;;;4.28;1.55;;;12.70;99.90;;;;;;5009786;28;20100;-70
2022/10/18 09:04:17;;;;;;;3.35;2.00;;;12.70;99.90;;;;;;5005570;28;20053;-71
2022/10/18 09:07:22;;;;;;;5.88;1.80;;;12.80;99.90;;;;;;5010420;28;20088;-71
2022/10/18 09:10:18;;;;;;;3.35;1.80;;;12.70;99.90;;;;;;5008428;28;20057;-71
2022/10/18 09:13:03;;;;;;;4.93;1.92;;;12.80;99.90;;;;;;5008472;28;20580;-71
2022/10/18 09:15:49;;;;;;;4.28;1.75;;;12.80;99.90;;;;;;5005968;28;20056;-70
2022/10/18 09:18:47;;;;;;;3.47;1.70;;;12.80;99.90;;;;;;5014682;28;20037;-70
2022/10/18 09:21:29;;;;;;;4.10;1.58;;;12.80;99.90;;;;;;5014018;28;20105;-70
2022/10/18 09:24:10;;;;;;;2.97;1.73;;;12.90;99.90;;;;;;5011873;28;20833;-71
2022/10/18 09:26:47;;;;;;;4.28;1.55;;;12.90;99.90;;;;;;5009175;28;20034;-70
2022/10/18 09:29:27;;;;;;;3.47;1.40;;;12.90;99.90;;;;;;5013203;28;20049;-70
2022/10/18 09:32:22;;;;;;;3.45;1.55;;;12.90;99.90;;;;;;4998299;28;20487;-70
2022/10/18 09:34:57;;;;;;;2.45;1.40;;;12.90;99.90;;;;;;5015969;28;20044;-70
2022/10/18 09:37:24;;;;;;;2.45;1.15;;;12.90;99.90;;;;;;5008515;28;20060;-70
2022/10/18 09:39:54;;;;;;;3.17;1.20;;;12.90;99.90;;;;;;4997225;28;20048;-71
2022/10/18 09:42:25;;;;;;;4.05;1.35;;;13.00;99.90;;;;;;5011556;28;20041;-70
2022/10/18 09:44:57;;;;;;;1.92;0.98;;;13.00;99.90;;;;;;5016278;28;21222;-71
2022/10/18 09:47:35;;;;;;;1.55;0.75;;;13.10;99.90;;;;;;5013386;28;20044;-71
2022/10/18 09:50:12;;;;;;;4.05;1.30;;;13.00;99.90;;;;;;5013399;28;20087;-71
2022/10/18 09:52:49;;;;;;;1.55;0.70;;;13.10;99.90;;;;;;5013544;28;20408;-71
2022/10/18 09:55:21;;;;;;;3.05;0.95;;;13.10;99.90;;;;;;5015159;28;20243;-71
2022/10/18 09:57:55;;;;;;;0.85;0.60;;;13.20;99.90;;;;;;5028216;28;20084;-71
2022/10/18 10:00:27;;;;;;;2.65;1.00;;;13.20;99.90;;;;;;5012454;28;20533;-71
2022/10/18 10:02:53;;;;;;;4.47;1.05;;;13.30;99.90;;;;;;5018208;28;20114;-71
2022/10/18 10:05:18;;;;;;;3.30;1.30;;;13.30;99.90;;;;;;5016362;28;20045;-71
2022/10/18 10:07:46;;;;;;;4.45;1.00;;;13.30;99.90;;;;;;4998046;28;20096;-70
2022/10/18 10:10:26;;;;;;;2.53;1.10;;;13.40;99.90;;;;;;5013053;28;20045;-71
2022/10/18 10:13:14;;;;;;;2.33;0.90;;;13.50;99.90;;;;;;5010809;28;20494;-71
2022/10/18 10:15:50;;;;;;;3.88;0.90;;;13.50;99.90;;;;;;5011846;28;20037;-71
2022/10/18 10:18:19;;;;;;;2.70;0.88;;;13.50;99.90;;;;;;5016250;28;20466;-71
2022/10/18 10:20:47;;;;;;;0.88;0.45;;;13.60;99.90;;;;;;5026553;28;20045;-71
2022/10/18 10:23:23;;;;;;;1.17;0.50;;;13.60;99.90;;;;;;5013173;28;20641;-71
2022/10/18 10:26:03;;;;;;;4.72;0.60;;;13.60;99.90;;;;;;5018435;28;20042;-71
2022/10/18 10:28:35;;;;;;;0.47;0.20;;;13.70;99.90;;;;;;5014769;28;20037;-71
2022/10/18 10:31:22;;;;;;;1.33;0.50;;;13.70;99.90;;;;;;5013209;28;20056;-71
2022/10/18 10:34:00;;;;;;;6.20;0.55;;;13.70;99.90;;;;;;5016464;28;20064;-71
2022/10/18 10:36:26;;;;;;;1.40;0.38;;;13.70;99.90;;;;;;5015621;28;20491;-71
2022/10/18 10:39:02;;;;;;;0.77;0.50;;;13.70;99.90;;;;;;5015666;28;20053;-71
2022/10/18 10:41:28;;;;;;;1.77;0.47;;;13.80;99.90;;;;;;5011996;28;20046;-72
2022/10/18 10:43:54;;;;;;;2.35;0.50;;;13.80;99.90;;;;;;5011464;28;20052;-72
2022/10/18 10:46:20;;;;;;;2.35;0.60;;;13.80;99.90;;;;;;5034771;28;20034;-72
2022/10/18 10:48:57;;;;;;;3.17;0.60;;;13.90;99.90;;;;;;4997463;28;20041;-72
2022/10/18 10:51:36;;;;;;;6.72;0.85;;;14.00;99.90;;;;;;5015725;28;20542;-71
2022/10/18 10:54:12;;;;;;;2.40;0.60;;;13.90;99.90;;;;;;5011689;28;20045;-71
2022/10/18 10:57:01;;;;;;;2.70;0.40;;;13.90;99.90;;;;;;5015776;28;20045;-71
2022/10/18 10:59:30;;;;;;;1.38;0.47;;;13.90;99.90;;;;;;5014019;28;20180;-71
2022/10/18 11:02:17;;;;;;;0.82;0.38;;;13.90;99.90;;;;;;5015740;28;20053;-71
2022/10/18 11:04:45;;;;;;;0.90;0.50;;;13.80;99.90;;;;;;5016788;28;20045;-71
2022/10/18 11:07:27;;;;;;;2.15;0.40;;;13.80;99.90;;;;;;5013819;28;20423;-71
2022/10/18 11:10:00;;;;;;;2.92;0.35;;;13.80;99.90;;;;;;5011957;28;20057;-71
2022/10/18 11:12:33;;;;;;;2.08;0.90;;;13.80;99.90;;;;;;5011743;28;20049;-71
2022/10/18 11:15:08;;;;;;;1.27;0.60;;;13.80;99.90;;;;;;5012175;28;20350;-71
2022/10/18 11:17:53;;;;;;;2.85;0.30;;;13.80;99.90;;;;;;5018925;28;20061;-71
2022/10/18 11:20:42;;;;;;;9.95;0.98;;;13.80;99.90;;;;;;5019302;28;20041;-71
2022/10/18 11:23:11;;;;;;;1.85;0.43;;;13.80;99.90;;;;;;5014842;28;20037;-71
2022/10/18 11:26:00;;;;;;;0.60;0.30;;;13.90;99.90;;;;;;5013447;28;20053;-71
2022/10/18 11:28:35;;;;;;;1.17;0.50;;;14.00;99.90;;;;;;5010726;28;20045;-71
2022/10/18 11:31:07;;;;;;;2.30;0.40;;;14.10;99.90;;;;;;5014643;28;20388;-71
2022/10/18 11:34:10;;;;;;;1.17;0.40;;;14.20;99.90;;;;;;4999460;28;20483;-71
2022/10/18 11:36:52;;;;;;;1.85;0.40;;;14.30;99.90;;;;;;5014855;28;20140;-71
2022/10/18 11:39:43;;;;;;;5.95;0.52;;;14.30;99.90;;;;;;4995686;28;20080;-71
2022/10/18 11:42:40;;;;;;;1.42;0.20;;;14.30;99.90;;;;;;5011392;28;20047;-71
2022/10/18 11:45:36;;;;;;;1.58;0.38;;;14.30;99.90;;;;;;5009969;28;20080;-72
2022/10/18 11:48:28;;;;;;;0.85;0.28;;;14.20;99.90;;;;;;5009808;28;20065;-71
2022/10/18 11:50:59;;;;;;;1.50;0.30;;;14.20;99.90;;;;;;5018454;28;20501;-71
2022/10/18 11:54:06;;;;;;;1.23;0.35;;;14.20;99.90;;;;;;5013505;28;20091;-71
2022/10/18 11:56:41;;;;;;;1.67;0.30;;;14.20;99.90;;;;;;5002182;28;20045;-72
2022/10/18 11:59:41;;;;;;;2.33;0.50;;;14.20;99.90;;;;;;5015514;28;20068;-71
2022/10/18 12:02:24;;;;;;;4.47;0.68;;;14.20;99.90;;;;;;5016180;28;21444;-71
2022/10/18 12:04:56;;;;;;;1.10;0.32;;;14.20;99.90;;;;;;5018629;28;20188;-72
2022/10/18 12:07:24;;;;;;;5.45;0.40;;;14.20;99.90;;;;;;5012578;28;20034;-70
2022/10/18 12:09:53;;;;;;;0.50;0.20;;;14.10;99.90;;;;;;5013525;28;20246;-71
2022/10/18 12:12:27;;;;;;;5.07;0.47;;;14.10;99.90;;;;;;5011953;28;20073;-71
2022/10/18 12:15:01;;;;;;;1.10;0.20;;;14.10;99.90;;;;;;5011268;28;20084;-71
2022/10/18 12:17:29;;;;;;;6.50;1.25;;;14.00;99.90;;;;;;5013265;28;20668;-72
2022/10/18 12:19:59;;;;;;;1.25;0.32;;;14.10;99.90;;;;;;5024493;28;20515;-71
2022/10/18 12:22:34;;;;;;;0.57;0.30;;;14.10;99.90;;;;;;5008772;28;20045;-71
2022/10/18 12:25:00;;;;;;;2.22;0.32;;;14.10;99.90;;;;;;5012619;28;20041;-71
2022/10/18 12:27:57;;;;;;;1.55;0.20;;;14.10;99.90;;;;;;5000394;28;20036;-71
2022/10/18 12:30:51;;;;;;;1.25;0.30;;;14.20;99.90;;;;;;5010451;28;20049;-71
2022/10/18 12:33:27;;;;;;;0.10;0.10;;;14.20;99.90;;;;;;5010432;28;20049;-72
2022/10/18 12:36:21;;;;;;;1.35;0.38;;;14.30;99.90;;;;;;5012525;28;20055;-71
2022/10/18 12:38:52;;;;;;;4.43;0.88;;;14.20;99.90;;;;;;5008024;28;20060;-71
2022/10/18 12:41:26;;;;;;;2.55;0.43;;;14.30;99.90;;;;;;5006317;28;20038;-71
2022/10/18 12:43:58;;;;;;;4.57;0.20;;;14.20;99.90;;;;;;4997321;28;20049;-71
2022/10/18 12:46:40;;;;;;;1.65;0.52;;;14.30;99.90;;;;;;5012488;28;20045;-72
2022/10/18 12:49:11;;;;;;;1.13;0.20;;;14.30;99.90;;;;;;5011424;28;20064;-72
2022/10/18 12:51:58;;;;;;;5.50;1.05;;;14.30;99.90;;;;;;5012991;28;20036;-71
2022/10/18 12:54:36;;;;;;;1.25;0.20;;;14.40;99.90;;;;;;5015073;28;20490;-71
2022/10/18 12:57:04;;;;;;;0.75;0.30;;;14.50;99.90;;;;;;4995712;28;20045;-71
2022/10/18 12:59:30;;;;;;;4.05;0.50;;;14.50;99.90;;;;;;5013573;28;20037;-71
2022/10/18 13:01:55;;;;;;;1.73;0.30;;;14.60;99.90;;;;;;5012958;28;21453;-72
2022/10/18 13:04:27;;;;;;;1.02;0.25;;;14.60;99.90;;;;;;5017861;28;20505;-72
2022/10/18 13:07:32;;;;;;;0.28;0.20;;;14.60;99.90;;;;;;5013249;28;20053;-71
2022/10/18 13:10:11;;;;;;;1.23;0.20;;;14.50;99.90;;;;;;5003856;28;20136;-72